Flight Track Log - Related Links

Times and Time Zones

All times are in EDT time to prevent confusion due to time zone crossing. See the EMD21 flight status page for this flight to view local times or setup timezone preferences in your user account.

Time Position Orientation Groundspeed Altitude Reporting Facility
EDT Latitude Longitude Course Direction KTS MPH feet Rate Location/Type
Thu 12:04:17 PM 34.9792 -95.6778 43° Northeast 224 258 4,700  Level Fort Worth Center
Thu 12:05:16 PM 35.0100 -95.6442 42° Northeast 188 216 5,800 950 Climbing Fort Worth Center
Thu 12:06:17 PM 35.0469 -95.6053 41° Northeast 170 196 6,600 1,000 Climbing Fort Worth Center
Thu 12:07:16 PM 35.0819 -95.5614 46° Northeast 170 196 7,800 1,150 Climbing Fort Worth Center
Thu 12:08:00 PM 35.0600 -95.5734 39° Northeast  Level FlightAware Approximate
Thu 12:08:17 PM 35.1231 -95.5250 36° Northeast 165 190 8,900  Level Fort Worth Center
Thu 12:09:00 PM 35.1004 -95.5329 43° Northeast  Level FlightAware Approximate
Thu 12:09:16 PM 35.1619 -95.4783 44° Northeast 177 204 9,000  Level Fort Worth Center
Thu 12:10:16 PM 35.2008 -95.4267 47° Northeast 209 241 9,000  Level Fort Worth Center
Thu 12:11:16 PM 35.2478 -95.3722 43° Northeast 226 260 9,000  Level Fort Worth Center
Thu 12:12:17 PM 35.3075 -95.3200 36° Northeast 233 268 9,000  Level Fort Worth Center
Thu 12:14:00 PM 35.3708 -95.2421 45° Northeast  Level FlightAware Approximate
Thu 12:21:00 PM 35.6317 -94.9265 43° Northeast  Level FlightAware Approximate
Thu 12:22:00 PM 35.6702 -94.8830 43° Northeast  Level FlightAware Approximate
Thu 12:23:00 PM 35.7086 -94.8394 43° Northeast  Level FlightAware Approximate
Thu 12:24:00 PM 35.7471 -94.7958 43° Northeast  Level FlightAware Approximate
Thu 12:25:00 PM 35.7855 -94.7521 43° Northeast  Level FlightAware Approximate
Thu 12:26:00 PM 35.8238 -94.7083 44° Northeast  Level FlightAware Approximate
Thu 12:27:00 PM 35.8616 -94.6637 44° Northeast  Level FlightAware Approximate
Thu 12:28:00 PM 35.8994 -94.6191 44° Northeast  Level FlightAware Approximate
Thu 12:29:00 PM 35.9371 -94.5745 44° Northeast  Level FlightAware Approximate
Thu 12:30:00 PM 35.9749 -94.5298 44° Northeast  Level FlightAware Approximate
Thu 12:31:00 PM 36.0136 -94.4865 39° Northeast  Level FlightAware Approximate
Thu 12:32:00 PM 36.0542 -94.4458 39° Northeast  Level FlightAware Approximate
Thu 12:33:00 PM 36.0949 -94.4052 39° Northeast  Level FlightAware Approximate
Thu 12:34:00 PM 36.1332 -94.3614 47° Northeast  Level FlightAware Approximate

Login

Don't have an account? Register now (free) for customized features, flight alerts, and more!